Terminal Aerodrome Forecast
Issued by NWS

Home | Current Version | Previous Version | Text Only | Print | Product List | Glossary On
Versions: 1 2 3 4 5 6 7 8 9 10 11 12 13 14 15 16 17 18 19 20 21 22 23 24 25 26
000
FTUS46 KMTR 251510 AAB
TAFSFO
TAF AMD
KSFO 251510Z 2515/2618 20004KT P6SM FEW007 OVC014
      TEMPO 2517/2518 FEW010 SCT015
     FM251800 33005KT P6SM FEW016
     FM252100 30015KT P6SM FEW016
     FM260300 28010KT P6SM SCT016
     FM261000 27006KT P6SM BKN014
     FM261600 28007KT P6SM FEW016=

USA.gov is the U.S. government's official web portal to all federal, state and local government web resources and services.